Time;durP1;ratioP1;P1;durP2;ratioP2;P2;SDS_P1;SDS_P2;PMS_P1;PMS_P2;Temp;Humidity;BMP_temperature;BMP_pressure;BME280_temperature;BME280_humidity;BME280_pressure;Samples;Min_cycle;Max_cycle;Signal;HPM_P1;HPM_P2
2021/08/21 00:00:09;;;;;;;;;;;13.70;99.90;;;;;;5107890;28;20016;-65
2021/08/21 00:03:00;;;;;;;;;;;13.60;99.90;;;;;;5113916;28;19938;-66
2021/08/21 00:05:49;;;;;;;;;;;13.60;99.90;;;;;;5101593;28;19924;-67
2021/08/21 00:08:39;;;;;;;;;;;13.50;99.90;;;;;;5115794;28;19928;-65
2021/08/21 00:11:27;;;;;;;;;;;13.50;99.90;;;;;;5113539;28;20390;-66
2021/08/21 00:14:16;;;;;;;;;;;13.50;99.90;;;;;;5113079;28;20394;-65
2021/08/21 00:17:04;;;;;;;;;;;13.50;99.90;;;;;;5106648;28;19923;-66
2021/08/21 00:19:53;;;;;;;;;;;13.50;99.90;;;;;;5113916;28;19988;-65
2021/08/21 00:22:41;;;;;;;;;;;13.40;99.90;;;;;;5114137;28;20025;-65
2021/08/21 00:25:32;;;;;;;;;;;13.40;99.90;;;;;;5113003;28;20337;-66
2021/08/21 00:28:21;;;;;;;;;;;13.40;99.90;;;;;;5113135;28;19930;-65
2021/08/21 00:31:10;;;;;;;;;;;13.30;99.90;;;;;;5091996;28;19924;-65
2021/08/21 00:34:00;;;;;;;;;;;13.30;99.90;;;;;;5098396;28;19963;-66
2021/08/21 00:36:49;;;;;;;;;;;13.30;99.90;;;;;;5112434;28;19923;-65
2021/08/21 00:39:38;;;;;;;;;;;13.30;99.90;;;;;;5112210;28;19962;-65
2021/08/21 00:42:28;;;;;;;;;;;13.20;99.90;;;;;;5097726;28;20384;-66
2021/08/21 00:45:16;;;;;;;;;;;13.30;99.90;;;;;;5105521;28;20017;-65
2021/08/21 00:48:07;;;;;;;;;;;13.30;99.90;;;;;;5083040;28;19956;-65
2021/08/21 00:50:58;;;;;;;;;;;13.20;99.90;;;;;;5112550;28;20390;-65
2021/08/21 00:53:47;;;;;;;;;;;13.20;99.90;;;;;;5095952;28;19935;-69
2021/08/21 00:56:35;;;;;;;;;;;13.20;99.90;;;;;;5097689;28;20021;-65
2021/08/21 00:59:25;;;;;;;;;;;13.20;99.90;;;;;;5111616;28;19931;-66
2021/08/21 01:02:14;;;;;;;;;;;13.10;99.90;;;;;;5106167;28;19967;-66
2021/08/21 01:05:05;;;;;;;;;;;13.10;99.90;;;;;;5098757;28;19923;-65
2021/08/21 01:07:55;;;;;;;;;;;13.00;99.90;;;;;;5098267;28;20299;-65
2021/08/21 01:10:46;;;;;;;;;;;13.00;99.90;;;;;;5097030;28;19946;-65
2021/08/21 01:13:35;;;;;;;;;;;12.90;99.90;;;;;;5113475;28;19924;-66
2021/08/21 01:16:25;;;;;;;;;;;12.90;99.90;;;;;;5105137;28;19930;-65
2021/08/21 01:19:14;;;;;;;;;;;12.80;99.90;;;;;;5098076;28;20264;-65
2021/08/21 01:22:03;;;;;;;;;;;12.80;99.90;;;;;;5111722;28;19924;-66
2021/08/21 01:24:53;;;;;;;;;;;12.80;99.90;;;;;;5097515;28;19931;-65
2021/08/21 01:27:48;;;;;;;;;;;12.70;99.90;;;;;;5097448;28;19969;-65
2021/08/21 01:30:51;;;;;;;;;;;12.70;99.90;;;;;;5085027;28;19924;-66
2021/08/21 01:33:53;;;;;;;;;;;12.80;99.90;;;;;;5077309;28;20435;-66
2021/08/21 01:36:43;;;;;;;;;;;12.80;99.90;;;;;;5078322;28;20018;-66
2021/08/21 01:39:52;;;;;;;;;;;12.80;99.90;;;;;;5092002;28;19931;-66
2021/08/21 01:43:02;;;;;;;;;;;12.80;99.90;;;;;;5091459;28;19924;-66
2021/08/21 01:45:57;;;;;;;;;;;12.70;99.90;;;;;;5078187;28;19931;-68
2021/08/21 01:48:46;;;;;;;;;;;12.70;99.90;;;;;;5096986;28;19924;-68
2021/08/21 01:51:34;;;;;;;;;;;12.70;99.90;;;;;;5112166;28;19924;-65
2021/08/21 01:54:25;;;;;;;;;;;12.60;99.90;;;;;;5092797;28;19924;-66
2021/08/21 01:57:15;;;;;;;;;;;12.60;99.90;;;;;;5098081;28;20383;-65
2021/08/21 02:00:14;;;;;;;;;;;12.60;99.90;;;;;;5090817;28;19931;-66
2021/08/21 02:03:07;;;;;;;;;;;12.50;99.90;;;;;;5097582;28;20069;-66
2021/08/21 02:06:00;;;;;;;;;;;12.50;99.90;;;;;;5097082;28;20382;-66
2021/08/21 02:08:49;;;;;;;;;;;12.50;99.90;;;;;;5104821;28;19923;-66
2021/08/21 02:11:38;;;;;;;;;;;12.40;99.90;;;;;;5115216;27;19923;-68
2021/08/21 02:14:27;;;;;;;;;;;12.40;99.90;;;;;;5120579;27;20329;-68
2021/08/21 02:17:17;;;;;;;;;;;12.50;99.90;;;;;;5128832;27;19923;-68
2021/08/21 02:20:22;;;;;;;;;;;12.60;99.90;;;;;;5121108;27;19930;-65
2021/08/21 02:23:13;;;;;;;;;;;12.70;99.90;;;;;;5120522;27;19923;-65
2021/08/21 02:26:02;;;;;;;;;;;12.70;99.90;;;;;;5121698;27;19924;-66
2021/08/21 02:28:55;;;;;;;;;;;12.70;99.90;;;;;;5119730;27;20045;-68
2021/08/21 02:31:44;;;;;;;;;;;12.70;99.90;;;;;;5108389;28;19924;-65
2021/08/21 02:34:35;;;;;;;;;;;12.70;99.90;;;;;;5114940;28;19924;-65
2021/08/21 02:37:24;;;;;;;;;;;12.70;99.90;;;;;;5099884;28;19923;-65
2021/08/21 02:40:14;;;;;;;;;;;12.70;99.90;;;;;;5114900;28;19931;-65
2021/08/21 02:43:02;;;;;;;;;;;12.80;99.90;;;;;;5098998;28;20404;-66
2021/08/21 02:45:50;;;;;;;;;;;12.80;99.90;;;;;;5113783;27;19980;-67
2021/08/21 02:48:39;;;;;;;;;;;12.90;99.90;;;;;;5121751;27;19958;-68
2021/08/21 02:51:28;;;;;;;;;;;12.90;99.90;;;;;;5135657;27;20404;-65
2021/08/21 02:54:17;;;;;;;;;;;12.90;99.90;;;;;;5135097;27;20020;-65
2021/08/21 02:57:07;;;;;;;;;;;12.80;99.90;;;;;;5120760;27;20025;-65
2021/08/21 02:59:56;;;;;;;;;;;12.80;99.90;;;;;;5122784;27;19930;-69
2021/08/21 03:02:55;;;;;;;;;;;12.70;99.90;;;;;;5121013;27;20436;-65
2021/08/21 03:05:44;;;;;;;;;;;12.70;99.90;;;;;;5119093;27;19923;-66
2021/08/21 03:08:37;;;;;;;;;;;12.70;99.90;;;;;;5120191;27;19954;-65
2021/08/21 03:11:26;;;;;;;;;;;12.70;99.90;;;;;;5119424;27;19929;-66
2021/08/21 03:14:46;;;;;;;;;;;12.70;99.90;;;;;;5119356;27;19931;-66
2021/08/21 03:17:35;;;;;;;;;;;12.80;99.90;;;;;;5119134;27;19985;-67
2021/08/21 03:20:23;;;;;;;;;;;12.90;99.90;;;;;;5118134;27;19923;-66
2021/08/21 03:23:12;;;;;;;;;;;12.90;99.90;;;;;;5098071;27;19928;-66
2021/08/21 03:26:02;;;;;;;;;;;12.80;99.90;;;;;;5120252;27;20382;-65
2021/08/21 03:28:54;;;;;;;;;;;12.90;99.90;;;;;;5119504;27;19930;-68
2021/08/21 03:31:43;;;;;;;;;;;12.90;99.90;;;;;;5127336;27;19923;-65
2021/08/21 03:34:34;;;;;;;;;;;12.90;99.90;;;;;;5133767;27;20298;-68
2021/08/21 03:37:24;;;;;;;;;;;12.80;99.90;;;;;;5119138;27;19928;-68
2021/08/21 03:40:13;;;;;;;;;;;12.70;99.90;;;;;;5120424;27;20010;-66
2021/08/21 03:43:08;;;;;;;;;;;12.80;99.90;;;;;;5117521;27;19923;-66
2021/08/21 03:45:57;;;;;;;;;;;12.80;99.90;;;;;;5106427;28;19924;-65
2021/08/21 03:48:46;;;;;;;;;;;12.70;99.90;;;;;;5098611;28;19924;-66
2021/08/21 03:51:35;;;;;;;;;;;12.70;99.90;;;;;;5098333;28;19930;-66
2021/08/21 03:54:24;;;;;;;;;;;12.60;99.90;;;;;;5097727;28;19924;-66
2021/08/21 03:57:15;;;;;;;;;;;12.60;99.90;;;;;;5098552;28;20010;-65
2021/08/21 04:00:06;;;;;;;;;;;12.60;99.90;;;;;;5106634;27;19981;-65
2021/08/21 04:03:04;;;;;;;;;;;12.60;99.90;;;;;;5131556;27;20398;-67
2021/08/21 04:05:55;;;;;;;;;;;12.60;99.90;;;;;;5117665;27;19946;-68
2021/08/21 04:08:45;;;;;;;;;;;12.60;99.90;;;;;;5117305;27;20018;-65
2021/08/21 04:11:41;;;;;;;;;;;12.50;99.90;;;;;;5117012;27;20401;-67
2021/08/21 04:14:34;;;;;;;;;;;12.60;99.90;;;;;;5132936;27;19923;-65
2021/08/21 04:17:24;;;;;;;;;;;12.60;99.90;;;;;;5106503;28;19996;-66
2021/08/21 04:20:13;;;;;;;;;;;12.60;99.90;;;;;;5098564;28;19953;-67
2021/08/21 04:23:02;;;;;;;;;;;12.60;99.90;;;;;;5097091;28;20006;-66
2021/08/21 04:25:52;;;;;;;;;;;12.60;99.90;;;;;;5097437;28;19927;-65
2021/08/21 04:28:40;;;;;;;;;;;12.70;99.90;;;;;;5097565;28;19930;-65
2021/08/21 04:31:30;;;;;;;;;;;12.70;99.90;;;;;;5103577;27;19923;-66
2021/08/21 04:34:20;;;;;;;;;;;12.70;99.90;;;;;;5132257;27;19930;-65
2021/08/21 04:37:10;;;;;;;;;;;12.70;99.90;;;;;;5117882;27;19929;-66
2021/08/21 04:40:01;;;;;;;;;;;12.80;99.90;;;;;;5116608;27;19923;-68
2021/08/21 04:42:50;;;;;;;;;;;12.80;99.90;;;;;;5116352;27;19928;-67
2021/08/21 04:45:39;;;;;;;;;;;12.90;99.90;;;;;;5112252;27;20466;-65
2021/08/21 04:48:28;;;;;;;;;;;13.00;99.90;;;;;;5117151;27;19923;-68
2021/08/21 04:51:18;;;;;;;;;;;13.00;99.90;;;;;;5118448;27;19924;-65
2021/08/21 04:54:06;;;;;;;;;;;13.00;99.90;;;;;;5123636;27;19923;-66
2021/08/21 04:56:55;;;;;;;;;;;13.10;99.90;;;;;;5130353;27;19923;-65
2021/08/21 04:59:45;;;;;;;;;;;13.20;99.90;;;;;;5117774;27;20024;-65
2021/08/21 05:02:34;;;;;;;;;;;13.30;99.90;;;;;;5116562;27;20095;-65
2021/08/21 05:05:23;;;;;;;;;;;13.20;99.90;;;;;;5117853;27;20394;-66
2021/08/21 05:08:15;;;;;;;;;;;13.30;99.90;;;;;;5116394;27;20357;-65
2021/08/21 05:11:08;;;;;;;;;;;13.50;99.90;;;;;;5116078;27;19933;-67
2021/08/21 05:13:58;;;;;;;;;;;13.50;99.90;;;;;;5120132;27;19946;-67
2021/08/21 05:16:47;;;;;;;;;;;13.50;99.90;;;;;;5112377;27;19937;-65
2021/08/21 05:19:54;;;;;;;;;;;13.50;99.90;;;;;;5132783;27;19930;-68
2021/08/21 05:23:06;;;;;;;;;;;13.60;99.90;;;;;;5116878;27;19927;-65
2021/08/21 05:25:57;;;;;;;;;;;13.60;99.90;;;;;;5117807;27;19924;-66
2021/08/21 05:28:46;;;;;;;;;;;13.80;99.90;;;;;;5117067;27;19923;-66
2021/08/21 05:31:36;;;;;;;;;;;13.80;99.90;;;;;;5125993;27;19930;-66
2021/08/21 05:34:24;;;;;;;;;;;13.80;99.90;;;;;;5132378;27;19923;-66
2021/08/21 05:37:14;;;;;;;;;;;13.90;99.90;;;;;;5131656;27;19931;-66
2021/08/21 05:40:03;;;;;;;;;;;14.00;99.90;;;;;;5131553;27;19924;-66
2021/08/21 05:42:52;;;;;;;;;;;14.20;99.90;;;;;;5132342;27;19931;-66
2021/08/21 05:45:41;;;;;;;;;;;14.10;99.90;;;;;;5123762;27;20402;-66
2021/08/21 05:48:29;;;;;;;;;;;14.20;99.90;;;;;;5131462;27;20008;-65
2021/08/21 05:51:17;;;;;;;;;;;14.20;99.90;;;;;;5131576;27;20312;-65
2021/08/21 05:54:06;;;;;;;;;;;14.20;99.90;;;;;;5132179;27;19923;-68
2021/08/21 05:56:55;;;;;;;;;;;14.40;99.90;;;;;;5131349;28;19930;-65
2021/08/21 05:59:45;;;;;;;;;;;14.60;99.90;;;;;;5130885;28;20385;-65
2021/08/21 06:02:33;;;;;;;;;;;14.90;99.90;;;;;;5129942;28;19931;-66
2021/08/21 06:05:23;;;;;;;;;;;15.30;99.90;;;;;;5131476;28;20290;-66
2021/08/21 06:08:18;;;;;;;;;;;15.60;99.90;;;;;;5117912;28;19923;-66
2021/08/21 06:11:12;;;;;;;;;;;15.50;99.90;;;;;;5116443;28;20077;-68
2021/08/21 06:14:01;;;;;;;;;;;15.60;99.90;;;;;;5116574;28;19935;-66
2021/08/21 06:16:51;;;;;;;;;;;15.90;99.90;;;;;;5124806;28;20341;-66
2021/08/21 06:19:39;;;;;;;;;;;15.70;99.90;;;;;;5131358;28;20379;-66
2021/08/21 06:22:28;;;;;;;;;;;15.60;99.90;;;;;;5129853;28;19924;-68
2021/08/21 06:25:16;;;;;;;;;;;15.60;99.90;;;;;;5130766;28;20010;-65
2021/08/21 06:28:05;;;;;;;;;;;15.80;99.90;;;;;;5130336;28;19924;-65
2021/08/21 06:30:54;;;;;;;;;;;15.80;99.90;;;;;;5124214;28;20057;-66
2021/08/21 06:33:44;;;;;;;;;;;16.00;99.90;;;;;;5130919;28;19927;-67
2021/08/21 06:36:34;;;;;;;;;;;18.20;99.90;;;;;;5130588;28;20333;-66
2021/08/21 06:39:22;;;;;;;;;;;20.50;99.90;;;;;;5130983;28;19927;-70
2021/08/21 06:42:12;;;;;;;;;;;21.40;99.90;;;;;;5129502;28;20393;-67
2021/08/21 06:45:10;;;;;;;;;;;22.40;99.90;;;;;;5110936;28;20018;-65
2021/08/21 06:47:58;;;;;;;;;;;22.10;99.90;;;;;;5131635;28;19941;-67
2021/08/21 06:50:48;;;;;;;;;;;22.50;99.90;;;;;;5131655;28;19931;-65
2021/08/21 06:53:36;;;;;;;;;;;24.30;99.00;;;;;;5117666;28;19927;-66
2021/08/21 06:56:25;;;;;;;;;;;24.20;98.30;;;;;;5133269;27;20390;-65
2021/08/21 06:59:13;;;;;;;;;;;23.50;98.60;;;;;;5134241;27;20464;-65
2021/08/21 07:02:02;;;;;;;;;;;23.50;98.70;;;;;;5127151;27;19924;-66
2021/08/21 07:04:51;;;;;;;;;;;23.40;98.10;;;;;;5135098;27;19923;-69
2021/08/21 07:07:40;;;;;;;;;;;24.20;98.70;;;;;;5134231;27;20044;-67
2021/08/21 07:10:30;;;;;;;;;;;26.00;95.90;;;;;;5112769;28;19928;-66
2021/08/21 07:13:18;;;;;;;;;;;24.70;97.00;;;;;;5128474;27;19923;-66
2021/08/21 07:16:10;;;;;;;;;;;23.60;99.00;;;;;;5129807;27;19923;-68
2021/08/21 07:19:00;;;;;;;;;;;22.40;99.90;;;;;;5136012;27;20503;-67
2021/08/21 07:21:52;;;;;;;;;;;21.50;99.90;;;;;;5134557;27;20314;-69
2021/08/21 07:24:44;;;;;;;;;;;21.40;99.90;;;;;;5134981;27;19923;-66
2021/08/21 07:27:34;;;;;;;;;;;21.60;99.90;;;;;;5134455;27;19935;-66
2021/08/21 07:30:50;;;;;;;;;;;24.00;99.10;;;;;;5128797;27;20370;-67
2021/08/21 07:33:40;;;;;;;;;;;25.10;96.20;;;;;;5138202;27;20031;-67
2021/08/21 07:36:29;;;;;;;;;;;26.20;94.80;;;;;;5141261;27;19963;-67
2021/08/21 07:39:18;;;;;;;;;;;26.80;93.50;;;;;;5134853;27;19984;-67
2021/08/21 07:42:07;;;;;;;;;;;24.60;96.60;;;;;;5144441;27;19923;-68
2021/08/21 07:44:56;;;;;;;;;;;25.40;96.40;;;;;;5134814;27;19923;-66
2021/08/21 07:47:49;;;;;;;;;;;24.10;96.20;;;;;;5133180;27;20379;-68
2021/08/21 07:50:38;;;;;;;;;;;23.20;98.60;;;;;;5133441;27;19931;-67
2021/08/21 07:53:31;;;;;;;;;;;25.70;96.20;;;;;;5128687;27;19923;-67
2021/08/21 07:56:19;;;;;;;;;;;27.70;92.00;;;;;;5133939;27;19927;-67
2021/08/21 07:59:09;;;;;;;;;;;29.50;88.60;;;;;;5133605;27;20394;-67
2021/08/21 08:01:57;;;;;;;;;;;30.60;84.60;;;;;;5127565;27;19930;-67
2021/08/21 08:04:46;;;;;;;;;;;29.30;84.20;;;;;;5133305;27;19931;-68
2021/08/21 08:07:59;;;;;;;;;;;26.20;92.10;;;;;;5132418;27;19924;-67
2021/08/21 08:10:48;;;;;;;;;;;25.40;94.90;;;;;;5100517;28;19924;-69
2021/08/21 08:13:36;;;;;;;;;;;25.80;93.60;;;;;;5089995;28;19931;-67
2021/08/21 08:16:26;;;;;;;;;;;25.50;94.50;;;;;;5094012;28;19930;-66
2021/08/21 08:19:14;;;;;;;;;;;25.10;95.50;;;;;;5098350;28;19931;-67
2021/08/21 08:22:03;;;;;;;;;;;26.80;93.00;;;;;;5102440;28;19927;-65
2021/08/21 08:24:51;;;;;;;;;;;28.20;90.90;;;;;;5111652;28;19969;-67
2021/08/21 08:28:04;;;;;;;;;;;27.90;88.50;;;;;;5106845;27;20057;-66
2021/08/21 08:30:54;;;;;;;;;;;32.20;80.90;;;;;;5101308;28;19928;-66
2021/08/21 08:33:46;;;;;;;;;;;29.90;78.40;;;;;;5112720;28;19924;-67
2021/08/21 08:36:35;;;;;;;;;;;28.80;84.40;;;;;;5097472;28;20065;-66
2021/08/21 08:39:24;;;;;;;;;;;32.00;75.70;;;;;;5112394;28;19991;-70
2021/08/21 08:42:16;;;;;;;;;;;32.60;72.00;;;;;;5111859;28;19946;-67
2021/08/21 08:45:05;;;;;;;;;;;31.30;72.20;;;;;;5091414;28;19931;-67
2021/08/21 08:47:54;;;;;;;;;;;30.20;76.70;;;;;;5110045;28;19924;-68
2021/08/21 08:50:45;;;;;;;;;;;31.80;73.10;;;;;;5105689;28;19923;-68
2021/08/21 08:53:34;;;;;;;;;;;31.60;71.10;;;;;;5111802;28;19928;-67
2021/08/21 08:56:23;;;;;;;;;;;31.60;70.70;;;;;;5111542;28;19932;-68
2021/08/21 08:59:11;;;;;;;;;;;33.50;68.30;;;;;;5111582;28;19924;-67
2021/08/21 09:01:59;;;;;;;;;;;31.90;68.80;;;;;;5106372;28;19923;-70
2021/08/21 09:04:59;;;;;;;;;;;31.70;70.10;;;;;;5111060;28;20014;-70
2021/08/21 09:07:54;;;;;;;;;;;31.00;69.20;;;;;;5111791;28;19930;-69
2021/08/21 09:10:45;;;;;;;;;;;32.20;68.60;;;;;;5102737;28;19930;-67
2021/08/21 09:13:33;;;;;;;;;;;33.80;64.10;;;;;;5113771;27;19928;-67
2021/08/21 09:16:26;;;;;;;;;;;35.90;59.30;;;;;;5123130;27;19930;-67
2021/08/21 09:19:22;;;;;;;;;;;33.00;64.10;;;;;;5129927;27;19939;-70
2021/08/21 09:22:12;;;;;;;;;;;32.20;67.60;;;;;;5129231;27;20019;-67
2021/08/21 09:25:03;;;;;;;;;;;32.20;64.70;;;;;;5115195;27;19924;-66
2021/08/21 09:27:52;;;;;;;;;;;30.20;69.00;;;;;;5130304;27;20291;-67
2021/08/21 09:30:42;;;;;;;;;;;30.80;70.00;;;;;;5117436;27;19924;-67
2021/08/21 09:33:30;;;;;;;;;;;32.70;64.00;;;;;;5111464;28;20276;-67
2021/08/21 09:36:27;;;;;;;;;;;30.50;68.80;;;;;;5110878;28;19924;-67
2021/08/21 09:39:16;;;;;;;;;;;30.90;69.70;;;;;;5095470;28;19924;-68
2021/08/21 09:42:08;;;;;;;;;;;31.40;67.20;;;;;;5109759;27;20307;-68
2021/08/21 09:45:08;;;;;;;;;;;29.40;72.00;;;;;;5109825;28;20276;-68
2021/08/21 09:48:00;;;;;;;;;;;28.90;75.50;;;;;;5112583;27;19980;-68
2021/08/21 09:50:48;;;;;;;;;;;27.90;79.70;;;;;;5109772;28;20433;-68
2021/08/21 09:53:39;;;;;;;;;;;27.30;84.60;;;;;;5110077;27;19924;-67
2021/08/21 09:56:32;;;;;;;;;;;26.30;86.70;;;;;;5126772;27;19924;-67
2021/08/21 09:59:34;;;;;;;;;;;26.40;87.90;;;;;;5113209;28;19923;-68
2021/08/21 10:02:23;;;;;;;;;;;27.00;86.90;;;;;;5105273;28;19931;-70
2021/08/21 10:05:12;;;;;;;;;;;26.90;86.00;;;;;;5117803;28;19923;-67
2021/08/21 10:08:05;;;;;;;;;;;27.90;83.30;;;;;;5118409;28;19947;-68
2021/08/21 10:10:55;;;;;;;;;;;28.80;81.50;;;;;;5120356;28;19927;-67
2021/08/21 10:13:43;;;;;;;;;;;28.20;82.30;;;;;;5088764;28;20291;-70
2021/08/21 10:16:34;;;;;;;;;;;27.00;88.10;;;;;;5102622;28;19931;-68
2021/08/21 10:19:23;;;;;;;;;;;26.70;88.30;;;;;;5100486;28;20327;-68
2021/08/21 10:22:11;;;;;;;;;;;27.00;87.60;;;;;;5107749;28;19930;-70
2021/08/21 10:25:03;;;;;;;;;;;26.60;89.10;;;;;;5101599;28;19924;-67
2021/08/21 10:27:55;;;;;;;;;;;27.00;87.30;;;;;;5112158;28;19959;-68
2021/08/21 10:30:44;;;;;;;;;;;30.00;80.20;;;;;;5094532;28;19924;-68
2021/08/21 10:37:02;;;;;;;;;;;32.30;67.70;;;;;;5095525;28;19966;-67
2021/08/21 10:39:51;;;;;;;;;;;28.80;76.80;;;;;;5110594;28;20410;-67
2021/08/21 10:42:51;;;;;;;;;;;27.60;82.20;;;;;;5095985;28;19928;-68
2021/08/21 10:45:43;;;;;;;;;;;28.20;81.30;;;;;;5101309;28;19924;-68
2021/08/21 10:48:50;;;;;;;;;;;27.40;81.40;;;;;;5098163;28;19923;-68
2021/08/21 10:51:40;;;;;;;;;;;26.50;85.80;;;;;;5113592;28;19930;-67
2021/08/21 10:54:53;;;;;;;;;;;26.40;87.70;;;;;;5113078;28;20416;-68
2021/08/21 10:57:54;;;;;;;;;;;27.20;85.70;;;;;;5108021;28;19930;-67
2021/08/21 11:00:47;;;;;;;;;;;27.00;86.10;;;;;;5107422;28;19925;-66
2021/08/21 11:03:45;;;;;;;;;;;26.90;84.60;;;;;;5113696;28;19993;-69
2021/08/21 11:06:36;;;;;;;;;;;26.80;85.50;;;;;;5112499;28;19923;-67
2021/08/21 11:09:25;;;;;;;;;;;26.80;86.30;;;;;;5104680;28;20010;-67
2021/08/21 11:12:30;;;;;;;;;;;26.50;86.20;;;;;;5103161;27;19924;-68
2021/08/21 11:15:21;;;;;;;;;;;27.50;86.00;;;;;;5117731;27;20425;-67
2021/08/21 11:18:19;;;;;;;;;;;27.40;85.60;;;;;;5121819;27;19924;-68
2021/08/21 11:21:22;;;;;;;;;;;27.20;85.80;;;;;;5127622;27;20401;-67
2021/08/21 11:24:32;;;;;;;;;;;27.30;87.40;;;;;;5133155;27;19935;-69
2021/08/21 11:27:30;;;;;;;;;;;27.50;86.90;;;;;;5115203;27;19935;-68
2021/08/21 11:30:27;;;;;;;;;;;27.60;85.70;;;;;;5109802;27;19924;-68
2021/08/21 11:33:16;;;;;;;;;;;27.10;87.60;;;;;;5115474;27;20405;-67
2021/08/21 11:36:05;;;;;;;;;;;26.30;89.40;;;;;;5132623;27;19935;-67
2021/08/21 11:38:53;;;;;;;;;;;26.20;90.00;;;;;;5116812;27;19946;-68
2021/08/21 11:41:52;;;;;;;;;;;26.40;89.40;;;;;;5120570;27;20371;-64
2021/08/21 11:44:53;;;;;;;;;;;26.50;90.10;;;;;;5123138;27;20375;-68
2021/08/21 11:47:43;;;;;;;;;;;26.20;88.80;;;;;;5111977;27;19967;-67
2021/08/21 11:50:33;;;;;;;;;;;26.50;90.30;;;;;;5112197;28;20399;-67
2021/08/21 11:53:23;;;;;;;;;;;26.30;89.90;;;;;;5112702;28;20368;-70
2021/08/21 11:56:14;;;;;;;;;;;26.60;89.20;;;;;;5112479;28;19931;-67
2021/08/21 11:59:07;;;;;;;;;;;26.50;90.30;;;;;;5112725;28;20329;-67
2021/08/21 12:02:00;;;;;;;;;;;26.20;90.10;;;;;;5122397;27;19927;-67
2021/08/21 12:04:56;;;;;;;;;;;25.90;90.30;;;;;;5133031;27;19927;-67
2021/08/21 12:08:17;;;;;;;;;;;25.80;91.00;;;;;;5133004;27;19923;-66
2021/08/21 12:11:06;;;;;;;;;;;26.10;90.80;;;;;;5132851;27;19923;-67
2021/08/21 12:13:54;;;;;;;;;;;26.00;90.30;;;;;;5134163;27;19923;-69
2021/08/21 12:16:43;;;;;;;;;;;26.00;90.00;;;;;;5127241;27;19999;-67
2021/08/21 12:19:32;;;;;;;;;;;25.90;90.30;;;;;;5132479;27;20139;-67
2021/08/21 12:22:22;;;;;;;;;;;25.80;90.40;;;;;;5132879;27;19942;-67
2021/08/21 12:25:10;;;;;;;;;;;26.40;90.20;;;;;;5132584;27;20375;-66
2021/08/21 12:28:10;;;;;;;;;;;26.20;88.60;;;;;;5118052;27;19936;-67
2021/08/21 12:31:01;;;;;;;;;;;26.40;90.00;;;;;;5125234;27;20022;-68
2021/08/21 12:33:56;;;;;;;;;;;26.80;88.40;;;;;;5131886;27;20371;-67
2021/08/21 12:36:45;;;;;;;;;;;27.00;88.40;;;;;;5132126;27;19923;-67
2021/08/21 12:39:41;;;;;;;;;;;26.50;89.60;;;;;;5131411;27;20359;-69
2021/08/21 12:42:29;;;;;;;;;;;26.00;89.80;;;;;;5132495;27;20016;-66
2021/08/21 12:45:18;;;;;;;;;;;26.00;90.50;;;;;;5125412;27;19927;-67
2021/08/21 12:48:07;;;;;;;;;;;26.00;90.60;;;;;;5132526;27;19934;-68
2021/08/21 12:51:30;;;;;;;;;;;26.00;90.60;;;;;;5133421;27;20010;-69
2021/08/21 12:54:26;;;;;;;;;;;26.00;90.50;;;;;;5131486;27;19931;-67
2021/08/21 12:57:18;;;;;;;;;;;25.90;90.80;;;;;;5132710;27;20434;-67
2021/08/21 13:00:08;;;;;;;;;;;26.30;90.40;;;;;;5125956;27;20363;-67
2021/08/21 13:02:56;;;;;;;;;;;26.20;90.50;;;;;;5132166;27;20005;-67
2021/08/21 13:05:56;;;;;;;;;;;26.20;90.10;;;;;;5132082;27;19932;-67
2021/08/21 13:08:44;;;;;;;;;;;26.30;90.10;;;;;;5131963;27;20027;-68
2021/08/21 13:11:35;;;;;;;;;;;26.30;89.60;;;;;;5142420;27;19923;-67
2021/08/21 13:14:25;;;;;;;;;;;26.30;90.60;;;;;;5131513;27;19924;-67
2021/08/21 13:17:13;;;;;;;;;;;26.30;90.80;;;;;;5124292;27;19953;-67
2021/08/21 13:20:02;;;;;;;;;;;26.70;90.80;;;;;;5132024;27;20397;-67
2021/08/21 13:22:51;;;;;;;;;;;26.50;90.20;;;;;;5130968;27;19937;-68
2021/08/21 13:25:42;;;;;;;;;;;26.60;90.10;;;;;;5131593;27;19923;-68
2021/08/21 13:28:31;;;;;;;;;;;26.80;89.80;;;;;;5131472;27;19930;-70
2021/08/21 13:31:21;;;;;;;;;;;26.80;88.20;;;;;;5123871;27;20423;-66
2021/08/21 13:34:10;;;;;;;;;;;26.70;89.80;;;;;;5131328;27;20009;-67
2021/08/21 13:36:58;;;;;;;;;;;26.70;90.00;;;;;;5131467;27;19924;-67
2021/08/21 13:39:47;;;;;;;;;;;26.50;88.30;;;;;;5130904;27;20394;-67
2021/08/21 13:42:36;;;;;;;;;;;26.60;89.50;;;;;;5131436;27;19924;-66
2021/08/21 13:45:24;;;;;;;;;;;26.80;90.30;;;;;;5123490;27;19923;-70
2021/08/21 13:48:14;;;;;;;;;;;27.00;88.60;;;;;;5132793;27;20006;-66
2021/08/21 13:51:03;;;;;;;;;;;27.20;86.10;;;;;;5130825;27;19923;-68
2021/08/21 13:53:51;;;;;;;;;;;26.90;86.90;;;;;;5131608;27;20392;-67
2021/08/21 13:56:40;;;;;;;;;;;26.50;88.60;;;;;;5131806;27;19923;-67
2021/08/21 13:59:28;;;;;;;;;;;26.30;90.10;;;;;;5130297;28;19924;-67
2021/08/21 14:02:17;;;;;;;;;;;26.20;90.30;;;;;;5124118;28;20379;-67
2021/08/21 14:05:11;;;;;;;;;;;26.30;90.40;;;;;;5131190;27;19927;-67
2021/08/21 14:08:03;;;;;;;;;;;26.50;88.30;;;;;;5126300;27;19923;-68
2021/08/21 14:10:51;;;;;;;;;;;26.50;87.90;;;;;;5135206;27;20018;-66
2021/08/21 14:13:40;;;;;;;;;;;26.50;88.40;;;;;;5135465;27;20404;-66
2021/08/21 14:16:28;;;;;;;;;;;26.50;88.60;;;;;;5118391;27;20322;-68
2021/08/21 14:19:17;;;;;;;;;;;26.50;89.00;;;;;;5115273;28;19930;-67
2021/08/21 14:22:06;;;;;;;;;;;26.80;84.00;;;;;;5099894;28;19931;-67
2021/08/21 14:24:55;;;;;;;;;;;27.30;84.30;;;;;;5114064;28;19927;-67
2021/08/21 14:27:49;;;;;;;;;;;27.50;83.90;;;;;;5114656;28;19924;-67
2021/08/21 14:30:39;;;;;;;;;;;27.10;82.60;;;;;;5107869;28;19963;-67
2021/08/21 14:33:27;;;;;;;;;;;27.50;83.30;;;;;;5114751;28;19935;-68
2021/08/21 14:36:16;;;;;;;;;;;27.60;81.40;;;;;;5114596;28;19924;-68
2021/08/21 14:39:05;;;;;;;;;;;27.30;84.20;;;;;;5114893;28;19924;-70
2021/08/21 14:41:54;;;;;;;;;;;27.20;84.90;;;;;;5114173;28;19924;-68
2021/08/21 14:44:42;;;;;;;;;;;27.00;82.60;;;;;;5113442;28;20295;-68
2021/08/21 14:47:31;;;;;;;;;;;27.20;84.40;;;;;;5093544;28;19950;-67
2021/08/21 14:50:19;;;;;;;;;;;27.10;82.70;;;;;;5093527;28;19924;-68
2021/08/21 14:53:08;;;;;;;;;;;27.20;84.60;;;;;;5093108;28;19993;-67
2021/08/21 14:55:57;;;;;;;;;;;27.10;82.40;;;;;;5093960;28;20296;-68
2021/08/21 14:58:46;;;;;;;;;;;27.00;83.70;;;;;;5093673;28;19930;-68
2021/08/21 15:01:34;;;;;;;;;;;27.00;84.00;;;;;;5099195;28;19985;-70
2021/08/21 15:04:23;;;;;;;;;;;26.80;84.90;;;;;;5113831;28;19923;-67
2021/08/21 15:07:11;;;;;;;;;;;26.50;86.10;;;;;;5113773;28;19931;-68
2021/08/21 15:10:05;;;;;;;;;;;26.40;86.70;;;;;;5113176;28;20006;-69
2021/08/21 15:12:55;;;;;;;;;;;26.40;86.50;;;;;;5128630;27;19923;-66
2021/08/21 15:15:43;;;;;;;;;;;26.20;88.10;;;;;;5127416;27;19924;-66
2021/08/21 15:18:33;;;;;;;;;;;26.20;87.30;;;;;;5133174;27;19924;-66
2021/08/21 15:21:23;;;;;;;;;;;26.40;90.00;;;;;;5133899;27;20022;-67
2021/08/21 15:24:11;;;;;;;;;;;26.20;86.90;;;;;;5119795;27;19923;-68
2021/08/21 15:27:00;;;;;;;;;;;26.30;87.50;;;;;;5133822;27;20306;-66
2021/08/21 15:29:50;;;;;;;;;;;27.10;85.70;;;;;;5134435;27;19928;-67
2021/08/21 15:32:40;;;;;;;;;;;28.60;81.10;;;;;;5113447;28;19931;-68
2021/08/21 15:35:29;;;;;;;;;;;29.90;77.60;;;;;;5112632;28;19931;-70
2021/08/21 15:38:18;;;;;;;;;;;28.80;78.10;;;;;;5098397;28;19928;-67
2021/08/21 15:41:07;;;;;;;;;;;28.30;79.90;;;;;;5113684;28;19924;-67
2021/08/21 15:43:56;;;;;;;;;;;30.40;75.40;;;;;;5112717;28;19930;-70
2021/08/21 15:46:46;;;;;;;;;;;30.70;72.70;;;;;;5122356;27;19924;-68
2021/08/21 15:49:35;;;;;;;;;;;30.80;72.30;;;;;;5134446;27;19930;-68
2021/08/21 15:52:24;;;;;;;;;;;29.90;73.80;;;;;;5136615;27;19931;-68
2021/08/21 15:55:12;;;;;;;;;;;28.70;81.00;;;;;;5139286;27;19927;-68
2021/08/21 15:58:01;;;;;;;;;;;28.00;82.70;;;;;;5134272;27;19930;-69
2021/08/21 16:00:49;;;;;;;;;;;27.10;81.70;;;;;;5127791;27;19935;-70
2021/08/21 16:03:40;;;;;;;;;;;27.20;83.40;;;;;;5135233;27;19972;-69
2021/08/21 16:06:29;;;;;;;;;;;27.20;83.90;;;;;;5135515;27;19966;-70
2021/08/21 16:09:18;;;;;;;;;;;26.70;85.90;;;;;;5135705;27;20299;-68
2021/08/21 16:12:07;;;;;;;;;;;26.50;86.10;;;;;;5134524;27;19924;-69
2021/08/21 16:14:56;;;;;;;;;;;26.50;88.20;;;;;;5134391;27;19936;-68
2021/08/21 16:17:44;;;;;;;;;;;26.50;90.00;;;;;;5133675;27;19924;-68
2021/08/21 16:20:34;;;;;;;;;;;26.50;85.90;;;;;;5133172;27;19924;-68
2021/08/21 16:23:22;;;;;;;;;;;26.50;86.90;;;;;;5133629;27;19973;-69
2021/08/21 16:26:11;;;;;;;;;;;26.50;88.10;;;;;;5132808;27;19923;-67
2021/08/21 16:29:00;;;;;;;;;;;26.50;88.40;;;;;;5132416;27;19969;-67
2021/08/21 16:31:49;;;;;;;;;;;26.30;88.00;;;;;;5127440;27;19931;-67
2021/08/21 16:34:38;;;;;;;;;;;26.20;88.90;;;;;;5132959;27;20022;-68
2021/08/21 16:37:29;;;;;;;;;;;26.20;89.80;;;;;;5132003;27;19927;-68